createdAt,value
2019-03-31T00:04:08.360Z,28.98
2019-03-31T00:14:16.435Z,34.30
2019-03-31T00:24:23.998Z,40.00
2019-03-31T00:29:28.476Z,29.50
2019-03-31T00:34:33.126Z,27.60
2019-03-31T00:44:41.381Z,32.95
2019-03-31T00:49:45.750Z,30.52
2019-03-31T00:54:50.531Z,30.35
2019-03-31T01:04:58.130Z,28.67
2019-03-31T01:10:03.015Z,27.98
2019-03-31T01:15:11.475Z,29.98
2019-03-31T01:20:15.850Z,31.70
2019-03-31T01:25:20.234Z,29.37
2019-03-31T01:30:25.027Z,28.10
2019-03-31T01:35:30.315Z,36.53
2019-03-31T01:40:34.943Z,34.48
2019-03-31T01:50:42.854Z,27.35
2019-03-31T01:55:47.199Z,31.62
2019-03-31T02:00:56.112Z,32.75
2019-03-31T02:06:00.412Z,38.90
2019-03-31T02:11:05.333Z,29.77
2019-03-31T02:16:10.272Z,29.52
2019-03-31T02:21:14.887Z,28.45
2019-03-31T02:31:22.547Z,33.98
2019-03-31T02:36:27.889Z,42.35
2019-03-31T02:41:32.898Z,37.78
2019-03-31T02:46:37.283Z,43.40
2019-03-31T02:51:41.600Z,38.55
2019-03-31T02:56:46.199Z,39.78
2019-03-31T03:06:54.253Z,40.60
2019-03-31T03:11:58.669Z,38.60
2019-03-31T03:17:03.302Z,42.70
2019-03-31T03:22:07.670Z,37.78
2019-03-31T03:27:12.402Z,33.75
2019-03-31T03:32:17.099Z,44.98
2019-03-31T03:42:24.632Z,37.80
2019-03-31T03:47:29.087Z,38.23
2019-03-31T03:52:33.720Z,35.15
2019-03-31T04:02:42.700Z,34.55
2019-03-31T04:07:47.258Z,41.18
2019-03-31T04:12:51.862Z,45.88
2019-03-31T04:22:59.362Z,36.70
2019-03-31T04:28:04.207Z,47.58
2019-03-31T04:33:08.941Z,38.90
2019-03-31T04:38:13.306Z,31.00
2019-03-31T04:43:18.466Z,41.25
2019-03-31T04:48:22.980Z,34.73
2019-03-31T04:53:27.240Z,35.33
2019-03-31T04:58:31.890Z,34.83
2019-03-31T05:08:39.366Z,41.15
2019-03-31T05:13:43.914Z,32.33
2019-03-31T05:18:48.750Z,39.42
2019-03-31T05:23:53.032Z,44.80
2019-03-31T05:28:57.466Z,58.00
2019-03-31T05:34:02.190Z,70.15
2019-03-31T05:44:11.083Z,60.90
2019-03-31T05:49:15.835Z,75.37
2019-03-31T05:54:20.439Z,87.88
2019-03-31T06:04:33.316Z,71.25
2019-03-31T06:09:34.647Z,86.30
2019-03-31T06:19:42.234Z,62.58
2019-03-31T06:24:46.612Z,71.45
2019-03-31T06:29:50.996Z,72.05
2019-03-31T06:34:55.434Z,60.70
2019-03-31T06:40:00.426Z,70.32
2019-03-31T06:45:05.352Z,70.67
2019-03-31T06:50:09.961Z,66.50
2019-03-31T06:55:14.267Z,74.47
2019-03-31T07:00:18.964Z,77.62
2019-03-31T07:10:27.471Z,80.53
2019-03-31T07:15:32.005Z,83.05
2019-03-31T07:20:36.653Z,82.42
2019-03-31T07:30:44.483Z,47.05
2019-03-31T07:35:49.101Z,46.35
2019-03-31T07:40:54.019Z,44.13
2019-03-31T07:45:58.748Z,43.17
2019-03-31T07:51:03.391Z,50.25
2019-03-31T07:56:07.719Z,50.33
2019-03-31T08:01:12.018Z,41.88
2019-03-31T08:06:16.297Z,43.63
2019-03-31T08:11:21.168Z,48.85
2019-03-31T08:16:25.884Z,42.08
2019-03-31T08:26:35.821Z,50.20
2019-03-31T08:31:40.829Z,35.60
2019-03-31T08:36:45.243Z,35.50
2019-03-31T08:41:49.554Z,40.50
2019-03-31T08:46:54.335Z,36.48
2019-03-31T08:57:02.310Z,36.13
2019-03-31T09:07:30.348Z,26.70
2019-03-31T09:12:34.972Z,27.13
2019-03-31T09:17:40.033Z,23.52
2019-03-31T09:22:44.318Z,29.80
2019-03-31T09:27:48.910Z,30.43
2019-03-31T09:32:53.597Z,23.98
2019-03-31T09:37:58.322Z,28.38
2019-03-31T09:43:02.671Z,31.15
2019-03-31T09:48:07.267Z,31.30
2019-03-31T09:53:12.778Z,23.70
2019-03-31T09:58:17.807Z,21.33
2019-03-31T10:03:25.698Z,22.70
2019-03-31T10:08:30.128Z,20.52
2019-03-31T10:13:34.403Z,9.03
2019-03-31T10:18:38.731Z,10.88
2019-03-31T10:23:43.063Z,16.65
2019-03-31T10:28:47.389Z,15.58
2019-03-31T10:33:52.003Z,16.30
2019-03-31T10:38:56.426Z,14.28
2019-03-31T10:44:06.373Z,18.12
2019-03-31T10:49:10.720Z,16.00
2019-03-31T10:54:15.318Z,17.15
2019-03-31T10:59:19.623Z,11.95
2019-03-31T11:04:23.944Z,9.78
2019-03-31T11:09:28.602Z,13.30
2019-03-31T11:14:32.864Z,10.45
2019-03-31T11:19:37.499Z,8.55
2019-03-31T11:24:41.801Z,7.12
2019-03-31T11:29:46.192Z,9.28
2019-03-31T11:34:50.829Z,7.15
2019-03-31T11:50:03.233Z,4.97
2019-03-31T11:55:07.816Z,10.32
2019-03-31T12:00:15.301Z,10.30
2019-03-31T12:05:19.604Z,9.45
2019-03-31T12:10:24.028Z,11.33
2019-03-31T12:15:28.572Z,8.33
2019-03-31T12:20:34.041Z,9.33
2019-03-31T12:25:38.322Z,12.03
2019-03-31T12:30:45.614Z,15.23
2019-03-31T12:35:50.442Z,11.53
2019-03-31T12:45:58.348Z,11.97
2019-03-31T12:51:02.662Z,10.25
2019-03-31T12:56:07.192Z,7.58
2019-03-31T13:01:11.519Z,10.10
2019-03-31T13:06:15.839Z,9.75
2019-03-31T13:11:21.788Z,5.15
2019-03-31T13:16:26.697Z,9.28
2019-03-31T13:21:31.048Z,8.00
2019-03-31T13:26:35.446Z,9.83
2019-03-31T13:31:39.729Z,8.98
2019-03-31T13:36:44.186Z,9.03
2019-03-31T13:41:49.117Z,9.13
2019-03-31T13:46:53.475Z,7.42
2019-03-31T13:51:58.418Z,7.45
2019-03-31T13:57:02.984Z,10.35
2019-03-31T14:02:12.178Z,8.70
2019-03-31T14:07:16.899Z,10.13
2019-03-31T14:12:21.586Z,4.22
2019-03-31T14:17:26.130Z,7.70
2019-03-31T14:22:30.728Z,6.53
2019-03-31T14:27:35.288Z,4.87
2019-03-31T14:32:39.598Z,3.85
2019-03-31T14:37:44.148Z,0.40
2019-03-31T14:42:48.486Z,5.50
2019-03-31T14:47:52.778Z,5.17
2019-03-31T14:52:57.068Z,2.75
2019-03-31T14:58:01.682Z,6.65
2019-03-31T15:03:05.977Z,10.20
2019-03-31T15:08:10.519Z,8.00
2019-03-31T15:13:14.904Z,8.65
2019-03-31T15:18:19.506Z,4.40
2019-03-31T15:23:28.827Z,6.37
2019-03-31T15:28:30.075Z,7.28
2019-03-31T15:33:34.636Z,5.75
2019-03-31T15:38:39.011Z,5.20
2019-03-31T15:43:43.374Z,2.77
2019-03-31T15:48:47.991Z,8.48
2019-03-31T15:53:52.694Z,5.37
2019-03-31T16:04:00.486Z,8.70
2019-03-31T16:09:05.794Z,8.15
2019-03-31T16:14:09.906Z,5.03
2019-03-31T16:19:14.042Z,6.30
2019-03-31T16:24:20.671Z,5.55
2019-03-31T16:29:33.173Z,8.70
2019-03-31T16:34:37.291Z,11.40
2019-03-31T16:39:41.244Z,6.10
2019-03-31T16:44:57.516Z,9.23
2019-03-31T16:49:50.574Z,7.45
2019-03-31T16:54:54.584Z,9.77
2019-03-31T16:59:58.653Z,4.07
2019-03-31T17:05:02.403Z,8.23
2019-03-31T17:10:06.868Z,8.65
2019-03-31T17:15:10.782Z,6.58
2019-03-31T17:20:14.820Z,5.70
2019-03-31T17:25:18.809Z,5.07
2019-03-31T17:30:23.082Z,5.40
2019-03-31T17:35:26.828Z,10.80
2019-03-31T17:40:30.616Z,14.73
2019-03-31T17:45:35.445Z,4.33
2019-03-31T17:55:42.946Z,7.87
2019-03-31T18:00:46.865Z,9.10
2019-03-31T18:05:53.188Z,4.30
2019-03-31T18:10:57.253Z,5.20
2019-03-31T18:16:01.128Z,7.13
2019-03-31T18:21:05.262Z,13.07
2019-03-31T18:26:09.866Z,6.92
2019-03-31T18:31:14.012Z,5.80
2019-03-31T18:36:18.533Z,2.75
2019-03-31T18:41:22.866Z,13.60
2019-03-31T18:46:58.671Z,7.28
2019-03-31T18:52:04.682Z,5.20
2019-03-31T18:57:33.749Z,6.33
2019-03-31T19:02:49.321Z,2.55
2019-03-31T19:08:13.649Z,4.20
2019-03-31T19:19:13.561Z,7.60
2019-03-31T19:24:29.747Z,6.35
2019-03-31T19:29:57.276Z,5.55
2019-03-31T19:35:33.137Z,8.20
2019-03-31T19:46:23.528Z,4.67
2019-03-31T19:51:58.493Z,5.10
2019-03-31T19:57:25.148Z,4.30
2019-03-31T20:02:35.275Z,4.60
2019-03-31T20:07:59.323Z,5.70
2019-03-31T20:13:31.591Z,8.93
2019-03-31T20:18:46.412Z,3.45
2019-03-31T20:24:19.368Z,7.08
2019-03-31T20:29:32.094Z,10.28
2019-03-31T20:34:55.053Z,10.58
2019-03-31T20:40:10.107Z,10.18
2019-03-31T20:45:14.693Z,8.78
2019-03-31T20:55:21.500Z,5.10
2019-03-31T21:00:25.240Z,8.50
2019-03-31T21:05:29.503Z,5.73
2019-03-31T21:10:35.263Z,4.95
2019-03-31T21:15:39.366Z,8.25
2019-03-31T21:20:43.159Z,1.42
2019-03-31T21:25:46.914Z,5.47
2019-03-31T21:30:50.685Z,12.73
2019-03-31T21:35:54.468Z,5.93
2019-03-31T21:41:08.431Z,2.60
2019-03-31T21:46:12.613Z,3.67
2019-03-31T21:51:16.470Z,3.22
2019-03-31T21:56:20.855Z,7.63
2019-03-31T22:01:24.726Z,8.60
2019-03-31T22:06:28.456Z,4.93
2019-03-31T22:11:32.724Z,3.20
2019-03-31T22:16:36.796Z,5.17
2019-03-31T22:21:40.866Z,7.25
2019-03-31T22:26:44.676Z,5.85
2019-03-31T22:31:48.475Z,2.90
2019-03-31T22:36:52.270Z,4.27
2019-03-31T22:41:56.539Z,4.93
2019-03-31T22:47:00.346Z,7.20
2019-03-31T22:52:04.099Z,7.50
2019-03-31T22:57:08.135Z,9.67
2019-03-31T23:02:13.307Z,2.62
2019-03-31T23:07:17.337Z,1.92
2019-03-31T23:12:21.221Z,4.62
2019-03-31T23:17:25.329Z,6.70
2019-03-31T23:22:29.382Z,6.60
2019-03-31T23:27:34.766Z,6.58
2019-03-31T23:32:41.564Z,3.60
2019-03-31T23:37:45.567Z,7.40
2019-03-31T23:42:49.352Z,6.00
2019-03-31T23:47:54.990Z,5.23
2019-03-31T23:52:59.379Z,7.65
2019-03-31T23:58:03.185Z,5.40
